Time;durP1;ratioP1;P1;durP2;ratioP2;P2;SDS_P1;SDS_P2;PMS_P1;PMS_P2;Temp;Humidity;BMP_temperature;BMP_pressure;BME280_temperature;BME280_humidity;BME280_pressure;Samples;Min_cycle;Max_cycle;Signal;HPM_P1;HPM_P2
2022/03/11 00:01:48;;;;;;;0.50;0.50;;;3.80;86.90;;;;;;4990502;28;20477;-71
2022/03/11 00:04:14;;;;;;;0.40;0.28;;;3.80;87.00;;;;;;4991264;28;20722;-72
2022/03/11 00:06:40;;;;;;;0.40;0.20;;;3.80;87.10;;;;;;4990425;28;20815;-72
2022/03/11 00:09:05;;;;;;;1.30;1.00;;;3.70;87.00;;;;;;4990712;28;20493;-71
2022/03/11 00:11:31;;;;;;;1.20;1.10;;;3.70;87.40;;;;;;4990765;28;20494;-72
2022/03/11 00:13:57;;;;;;;0.40;0.20;;;3.70;87.20;;;;;;4990271;28;20382;-72
2022/03/11 00:16:23;;;;;;;0.40;0.20;;;3.50;88.50;;;;;;4994550;28;20385;-71
2022/03/11 00:18:50;;;;;;;0.40;0.20;;;3.50;88.20;;;;;;5010161;28;20524;-71
2022/03/11 00:21:16;;;;;;;0.40;0.20;;;3.50;88.10;;;;;;5010277;28;20452;-72
2022/03/11 00:23:42;;;;;;;0.40;0.40;;;3.70;87.20;;;;;;5009813;28;20409;-72
2022/03/11 00:26:11;;;;;;;0.60;0.60;;;3.60;87.40;;;;;;5010514;28;20740;-71
2022/03/11 00:28:37;;;;;;;0.40;0.20;;;3.60;87.30;;;;;;5010090;28;20397;-72
2022/03/11 00:31:07;;;;;;;0.40;0.30;;;3.60;87.50;;;;;;5010299;28;20420;-72
2022/03/11 00:33:32;;;;;;;0.40;0.20;;;3.60;87.20;;;;;;5010340;28;20381;-71
2022/03/11 00:35:58;;;;;;;0.40;0.20;;;3.60;87.30;;;;;;5009492;28;20614;-71
2022/03/11 00:38:25;;;;;;;0.40;0.20;;;3.60;87.60;;;;;;5010372;28;20389;-72
2022/03/11 00:40:56;;;;;;;0.40;0.30;;;3.50;87.90;;;;;;5009415;28;20515;-72
2022/03/11 00:43:25;;;;;;;1.30;0.80;;;3.50;88.10;;;;;;5009332;28;20381;-71
2022/03/11 00:45:51;;;;;;;0.40;0.20;;;3.50;87.80;;;;;;5009571;28;20396;-71
2022/03/11 00:48:17;;;;;;;0.40;0.20;;;3.40;88.00;;;;;;5010663;28;20419;-71
2022/03/11 00:50:43;;;;;;;0.40;0.22;;;3.40;88.50;;;;;;5009668;28;20734;-72
2022/03/11 00:53:08;;;;;;;0.70;0.70;;;3.30;89.70;;;;;;5010181;28;20734;-71
2022/03/11 00:55:34;;;;;;;0.40;0.30;;;3.30;89.70;;;;;;5009924;28;20471;-71
2022/03/11 00:58:00;;;;;;;0.40;0.20;;;3.20;90.50;;;;;;5009502;28;20387;-72
2022/03/11 01:00:25;;;;;;;0.40;0.20;;;3.20;90.10;;;;;;5010156;28;20474;-71
2022/03/11 01:02:52;;;;;;;0.80;0.80;;;3.10;90.30;;;;;;5009530;28;20397;-72
2022/03/11 01:05:18;;;;;;;0.40;0.30;;;3.00;90.80;;;;;;5009940;28;20803;-71
2022/03/11 01:07:43;;;;;;;0.40;0.20;;;3.10;90.70;;;;;;5009082;28;20417;-72
2022/03/11 01:10:09;;;;;;;0.40;0.20;;;3.10;90.50;;;;;;5011859;28;20400;-71
2022/03/11 01:12:37;;;;;;;0.60;0.60;;;3.00;90.60;;;;;;5013678;28;20417;-71
2022/03/11 01:15:03;;;;;;;0.40;0.20;;;2.90;90.90;;;;;;5011859;28;20389;-71
2022/03/11 01:17:29;;;;;;;1.00;0.90;;;2.80;91.00;;;;;;5000872;28;20394;-71
2022/03/11 01:19:55;;;;;;;0.40;0.30;;;2.80;91.10;;;;;;4993230;28;20417;-72
2022/03/11 01:22:21;;;;;;;0.63;0.52;;;2.80;91.10;;;;;;4994102;28;20391;-71
2022/03/11 01:24:47;;;;;;;0.40;0.30;;;2.80;91.00;;;;;;4993244;28;20391;-72
2022/03/11 01:27:12;;;;;;;0.40;0.20;;;2.80;90.90;;;;;;4993951;28;20378;-71
2022/03/11 01:29:38;;;;;;;0.40;0.40;;;2.80;90.50;;;;;;4993789;28;20410;-71
2022/03/11 01:32:04;;;;;;;0.40;0.20;;;2.80;90.80;;;;;;4993476;28;20379;-72
2022/03/11 01:34:30;;;;;;;0.40;0.20;;;2.70;91.20;;;;;;4993803;28;20448;-72
2022/03/11 01:36:56;;;;;;;0.40;0.20;;;2.80;91.20;;;;;;4991461;28;20458;-72
2022/03/11 01:39:22;;;;;;;0.40;0.20;;;2.80;91.20;;;;;;4993375;28;20410;-71
2022/03/11 01:41:47;;;;;;;0.40;0.20;;;2.80;91.20;;;;;;4992845;28;20485;-72
2022/03/11 01:44:13;;;;;;;0.40;0.30;;;2.80;91.10;;;;;;4993557;28;20727;-72
2022/03/11 01:46:39;;;;;;;0.40;0.40;;;2.80;91.30;;;;;;4993273;28;20383;-72
2022/03/11 01:49:07;;;;;;;0.40;0.30;;;2.80;91.10;;;;;;4992826;28;20391;-71
2022/03/11 01:51:37;;;;;;;0.40;0.20;;;2.80;91.30;;;;;;4993800;28;20390;-71
2022/03/11 01:54:02;;;;;;;0.40;0.20;;;2.80;91.30;;;;;;4992801;28;20478;-72
2022/03/11 01:56:29;;;;;;;0.40;0.20;;;2.80;91.40;;;;;;4993500;28;20443;-71
2022/03/11 01:58:56;;;;;;;0.40;0.20;;;2.80;91.40;;;;;;4992624;28;20757;-72
2022/03/11 02:01:23;;;;;;;0.40;0.20;;;2.80;91.20;;;;;;4993052;28;20484;-71
2022/03/11 02:03:49;;;;;;;0.40;0.20;;;2.80;91.50;;;;;;4992585;28;20414;-71
2022/03/11 02:06:16;;;;;;;0.40;0.20;;;2.80;91.10;;;;;;4993169;28;20920;-72
2022/03/11 02:08:42;;;;;;;0.40;0.30;;;2.80;91.30;;;;;;4992501;28;20414;-71
2022/03/11 02:11:11;;;;;;;0.40;0.20;;;2.70;91.70;;;;;;4992772;28;20454;-72
2022/03/11 02:13:44;;;;;;;0.40;0.20;;;2.70;91.40;;;;;;4991852;28;20445;-71
2022/03/11 02:16:21;;;;;;;0.52;0.52;;;2.70;91.50;;;;;;4994548;28;20407;-72
2022/03/11 02:18:47;;;;;;;0.43;0.22;;;2.70;91.10;;;;;;5011650;28;20440;-72
2022/03/11 02:21:14;;;;;;;0.40;0.20;;;2.70;91.10;;;;;;5011414;28;20769;-71
2022/03/11 02:23:44;;;;;;;0.40;0.20;;;2.70;91.30;;;;;;5012517;28;20384;-72
2022/03/11 02:26:10;;;;;;;0.40;0.30;;;2.70;91.10;;;;;;5012155;28;20373;-71
2022/03/11 02:28:35;;;;;;;0.40;0.20;;;2.70;91.00;;;;;;5012239;28;20420;-72
2022/03/11 02:31:02;;;;;;;0.40;0.30;;;2.70;90.80;;;;;;5010414;28;20749;-72
2022/03/11 02:33:28;;;;;;;0.40;0.30;;;2.80;91.30;;;;;;5012308;28;20885;-72
2022/03/11 02:35:54;;;;;;;0.40;0.20;;;2.70;91.00;;;;;;5011562;28;20393;-72
2022/03/11 02:38:20;;;;;;;0.40;0.30;;;2.70;91.10;;;;;;5010892;28;20504;-72
2022/03/11 02:40:46;;;;;;;0.40;0.20;;;2.80;90.80;;;;;;5011668;28;20492;-72
2022/03/11 02:43:12;;;;;;;0.80;0.80;;;2.80;90.80;;;;;;5011807;28;20848;-71
2022/03/11 02:45:38;;;;;;;0.40;0.20;;;2.80;90.90;;;;;;5012058;28;20384;-72
2022/03/11 02:48:05;;;;;;;0.40;0.20;;;2.80;91.20;;;;;;5011192;28;20381;-72
2022/03/11 02:50:30;;;;;;;0.40;0.20;;;2.70;91.30;;;;;;5012139;28;20416;-72
2022/03/11 02:52:56;;;;;;;0.40;0.20;;;2.80;91.10;;;;;;5009809;28;20424;-72
2022/03/11 02:55:22;;;;;;;0.40;0.30;;;2.70;91.60;;;;;;5010792;28;20385;-72
2022/03/11 02:57:48;;;;;;;0.40;0.20;;;2.60;91.50;;;;;;5009885;28;20865;-72
2022/03/11 03:00:14;;;;;;;0.70;0.70;;;2.60;91.70;;;;;;5011473;28;20443;-72
2022/03/11 03:02:39;;;;;;;0.40;0.20;;;2.70;91.50;;;;;;5011646;28;20434;-72
2022/03/11 03:05:06;;;;;;;0.40;0.20;;;2.60;91.60;;;;;;5010961;28;20472;-72
2022/03/11 03:07:31;;;;;;;0.40;0.20;;;2.50;92.40;;;;;;5011563;28;20409;-72
2022/03/11 03:09:58;;;;;;;0.50;0.45;;;2.50;92.30;;;;;;5010936;28;20736;-71
2022/03/11 03:12:24;;;;;;;0.60;0.60;;;2.50;92.20;;;;;;5010336;28;20405;-72
2022/03/11 03:14:50;;;;;;;0.40;0.30;;;2.50;92.30;;;;;;5010835;28;20387;-72
2022/03/11 03:17:18;;;;;;;0.40;0.20;;;2.50;92.20;;;;;;5000147;28;20830;-72
2022/03/11 03:19:44;;;;;;;0.40;0.40;;;2.50;92.50;;;;;;4991778;28;20410;-72
2022/03/11 03:22:11;;;;;;;0.40;0.20;;;2.50;92.80;;;;;;4991309;28;20399;-72
2022/03/11 03:24:36;;;;;;;0.40;0.20;;;2.30;92.90;;;;;;4990555;28;20383;-72
2022/03/11 03:27:02;;;;;;;0.40;0.20;;;2.40;93.10;;;;;;4990996;28;20390;-72
2022/03/11 03:29:28;;;;;;;0.40;0.20;;;2.40;93.00;;;;;;4991486;28;20390;-72
2022/03/11 03:31:58;;;;;;;0.40;0.20;;;2.50;92.80;;;;;;4990922;28;20485;-72
2022/03/11 03:34:35;;;;;;;0.70;0.50;;;2.40;92.70;;;;;;4989550;28;20406;-72
2022/03/11 03:37:03;;;;;;;0.70;0.70;;;2.40;92.70;;;;;;4990619;28;20462;-73
2022/03/11 03:39:29;;;;;;;0.40;0.20;;;2.40;92.70;;;;;;4991245;28;20398;-72
2022/03/11 03:41:56;;;;;;;10.50;0.80;;;2.50;92.50;;;;;;4990574;28;20456;-73
2022/03/11 03:44:22;;;;;;;1.10;1.10;;;2.40;92.60;;;;;;4991483;28;20739;-73
2022/03/11 03:46:48;;;;;;;0.40;0.30;;;2.40;92.80;;;;;;4991044;28;20382;-73
2022/03/11 03:49:14;;;;;;;0.40;0.20;;;2.40;92.60;;;;;;4990899;28;20389;-73
2022/03/11 03:51:40;;;;;;;0.40;0.40;;;2.40;92.70;;;;;;4991442;28;20529;-73
2022/03/11 03:54:10;;;;;;;0.40;0.32;;;2.30;93.00;;;;;;4990538;28;20473;-73
2022/03/11 03:56:37;;;;;;;0.40;0.30;;;2.30;93.20;;;;;;4991049;28;20395;-73
2022/03/11 03:59:04;;;;;;;0.40;0.30;;;2.30;93.50;;;;;;4990371;28;20467;-73
2022/03/11 04:01:40;;;;;;;0.40;0.20;;;2.40;93.30;;;;;;4992816;28;20518;-73
2022/03/11 04:04:08;;;;;;;0.40;0.20;;;2.40;93.70;;;;;;5009978;28;20396;-73
2022/03/11 04:06:35;;;;;;;0.60;0.60;;;2.40;93.10;;;;;;4995057;28;20394;-73
2022/03/11 04:09:04;;;;;;;0.40;0.20;;;2.50;93.10;;;;;;4991455;28;20411;-73
2022/03/11 04:11:30;;;;;;;0.90;0.90;;;2.40;93.00;;;;;;5010403;28;20764;-72
2022/03/11 04:13:57;;;;;;;1.00;0.90;;;2.20;93.80;;;;;;5009798;28;20396;-73
2022/03/11 04:16:24;;;;;;;0.40;0.20;;;2.20;94.10;;;;;;5010643;28;20389;-73
2022/03/11 04:18:50;;;;;;;0.40;0.20;;;2.00;94.80;;;;;;4998965;28;20391;-73
2022/03/11 04:21:16;;;;;;;0.40;0.20;;;2.00;94.80;;;;;;4990166;28;20414;-73
2022/03/11 04:23:43;;;;;;;0.40;0.20;;;2.00;95.00;;;;;;4991122;28;20473;-72
2022/03/11 04:26:09;;;;;;;0.40;0.20;;;2.00;95.30;;;;;;4994796;28;20385;-72
2022/03/11 04:28:37;;;;;;;0.40;0.30;;;1.90;95.70;;;;;;5010718;28;20447;-73
2022/03/11 04:31:04;;;;;;;0.70;0.70;;;1.90;95.70;;;;;;5008597;28;20853;-73
2022/03/11 04:33:30;;;;;;;0.40;0.20;;;1.90;96.00;;;;;;5010998;28;20373;-73
2022/03/11 04:35:56;;;;;;;0.40;0.30;;;2.00;96.20;;;;;;4998225;28;20790;-73
2022/03/11 04:38:22;;;;;;;0.50;0.50;;;1.90;96.30;;;;;;4991313;28;20861;-72
2022/03/11 04:40:47;;;;;;;0.50;0.50;;;1.90;96.70;;;;;;4990921;28;20497;-73
2022/03/11 04:43:14;;;;;;;0.50;0.50;;;1.90;96.50;;;;;;4990199;28;20433;-73
2022/03/11 04:45:40;;;;;;;0.40;0.20;;;1.80;96.40;;;;;;4993641;28;20793;-73
2022/03/11 04:48:06;;;;;;;1.50;1.40;;;1.80;97.10;;;;;;4994450;28;20386;-73
2022/03/11 04:50:32;;;;;;;0.40;0.40;;;1.80;96.80;;;;;;4995087;28;20390;-72
2022/03/11 04:52:58;;;;;;;0.50;0.50;;;1.90;96.50;;;;;;4993869;28;20393;-72
2022/03/11 04:55:23;;;;;;;0.40;0.20;;;1.90;96.30;;;;;;4993671;28;20406;-73
2022/03/11 04:57:49;;;;;;;0.40;0.20;;;1.80;96.60;;;;;;4994499;28;20477;-73
2022/03/11 05:00:16;;;;;;;0.40;0.37;;;1.70;96.70;;;;;;4994048;28;20406;-72
2022/03/11 05:02:44;;;;;;;0.40;0.20;;;1.70;96.70;;;;;;4994650;28;20398;-72
2022/03/11 05:05:14;;;;;;;0.40;0.20;;;1.60;97.00;;;;;;4994171;28;20430;-73
2022/03/11 05:07:41;;;;;;;0.40;0.20;;;1.70;97.30;;;;;;4992932;28;20759;-72
2022/03/11 05:10:08;;;;;;;0.40;0.20;;;1.80;97.40;;;;;;5006273;28;20389;-73
2022/03/11 05:12:37;;;;;;;0.40;0.20;;;1.70;97.10;;;;;;5014076;28;20381;-73
2022/03/11 05:15:05;;;;;;;0.50;0.50;;;1.60;97.30;;;;;;5013301;28;20396;-72
2022/03/11 05:17:31;;;;;;;0.40;0.20;;;1.70;97.60;;;;;;5014237;28;20380;-72
2022/03/11 05:19:57;;;;;;;0.40;0.30;;;1.70;97.90;;;;;;5013261;28;20448;-73
2022/03/11 05:22:23;;;;;;;0.40;0.40;;;1.70;97.40;;;;;;5014086;28;20951;-72
2022/03/11 05:24:48;;;;;;;0.40;0.20;;;1.70;97.40;;;;;;5013981;28;20415;-72
2022/03/11 05:27:14;;;;;;;0.40;0.30;;;1.70;97.80;;;;;;5013087;28;20848;-73
2022/03/11 05:29:40;;;;;;;0.40;0.28;;;1.70;97.60;;;;;;5013545;28;20388;-72
2022/03/11 05:32:07;;;;;;;0.40;0.22;;;1.60;98.00;;;;;;5012983;28;21175;-74
2022/03/11 05:34:34;;;;;;;0.40;0.25;;;1.70;97.90;;;;;;5013716;28;20397;-72
2022/03/11 05:37:00;;;;;;;0.40;0.20;;;1.70;98.30;;;;;;5012938;28;20447;-72
2022/03/11 05:39:25;;;;;;;0.90;0.73;;;1.70;98.10;;;;;;5013908;28;20526;-73
2022/03/11 05:41:51;;;;;;;0.40;0.20;;;1.70;98.50;;;;;;5013550;28;20784;-72
2022/03/11 05:44:18;;;;;;;0.40;0.30;;;1.70;98.20;;;;;;5012792;28;20380;-72
2022/03/11 05:46:45;;;;;;;0.40;0.20;;;1.60;98.30;;;;;;5012313;28;20408;-72
2022/03/11 05:49:12;;;;;;;0.40;0.20;;;1.60;98.30;;;;;;5012753;28;20383;-72
2022/03/11 05:51:38;;;;;;;0.40;0.30;;;1.60;98.20;;;;;;5013819;28;20395;-73
2022/03/11 05:54:05;;;;;;;0.90;0.90;;;1.60;98.60;;;;;;5012724;28;20385;-73
2022/03/11 05:56:31;;;;;;;0.40;0.20;;;1.60;99.00;;;;;;5011206;28;20741;-72
2022/03/11 05:58:56;;;;;;;0.40;0.22;;;1.70;98.80;;;;;;5012707;28;20389;-73
2022/03/11 06:01:22;;;;;;;0.40;0.30;;;1.70;98.60;;;;;;5003263;28;20960;-72
2022/03/11 06:03:48;;;;;;;0.40;0.30;;;1.70;98.60;;;;;;4993796;28;20391;-72
2022/03/11 06:06:16;;;;;;;0.40;0.20;;;1.60;98.70;;;;;;4993252;28;20855;-73
2022/03/11 06:08:42;;;;;;;0.70;0.70;;;1.70;98.50;;;;;;4993989;28;20502;-73
2022/03/11 06:11:09;;;;;;;0.40;0.20;;;1.70;98.40;;;;;;5012364;28;20485;-74
2022/03/11 06:13:36;;;;;;;0.40;0.20;;;1.80;98.40;;;;;;5012856;28;20385;-73
2022/03/11 06:16:03;;;;;;;0.40;0.20;;;1.80;98.50;;;;;;5012325;28;20381;-73
2022/03/11 06:18:29;;;;;;;0.40;0.40;;;1.90;97.80;;;;;;5012520;28;20411;-73
2022/03/11 06:20:56;;;;;;;0.40;0.20;;;1.90;98.10;;;;;;5012625;28;20409;-73
2022/03/11 06:23:25;;;;;;;0.40;0.20;;;2.00;97.20;;;;;;5012252;28;20424;-74
2022/03/11 06:25:51;;;;;;;0.40;0.20;;;2.00;97.30;;;;;;5012617;28;20392;-73
2022/03/11 06:28:17;;;;;;;0.40;0.20;;;2.10;97.00;;;;;;5010686;28;20397;-73
2022/03/11 06:30:45;;;;;;;0.50;0.50;;;2.20;96.60;;;;;;5012804;28;20415;-73
2022/03/11 06:33:10;;;;;;;0.40;0.20;;;2.10;96.60;;;;;;5011874;28;20443;-71
2022/03/11 06:35:36;;;;;;;0.40;0.30;;;2.30;96.70;;;;;;5012761;28;20376;-74
2022/03/11 06:38:03;;;;;;;0.65;0.65;;;2.20;97.30;;;;;;5011639;28;20397;-74
2022/03/11 06:40:29;;;;;;;0.40;0.20;;;2.20;97.10;;;;;;5012175;28;20950;-73
2022/03/11 06:42:55;;;;;;;0.40;0.30;;;2.30;96.50;;;;;;5012079;28;20407;-74
2022/03/11 06:45:22;;;;;;;0.40;0.20;;;2.40;96.00;;;;;;5011697;28;20483;-74
2022/03/11 06:47:48;;;;;;;0.90;0.90;;;2.60;95.60;;;;;;5012335;28;20843;-74
2022/03/11 06:50:16;;;;;;;0.40;0.20;;;2.60;95.80;;;;;;5011590;28;20475;-73
2022/03/11 06:52:42;;;;;;;0.40;0.20;;;2.70;95.10;;;;;;5012149;28;20401;-73
2022/03/11 06:55:09;;;;;;;0.40;0.40;;;2.80;94.80;;;;;;5011524;28;20887;-74
2022/03/11 06:57:34;;;;;;;0.40;0.30;;;2.80;95.00;;;;;;5012163;28;20397;-71
2022/03/11 07:00:01;;;;;;;0.40;0.28;;;2.80;94.80;;;;;;5011765;28;20409;-72
2022/03/11 07:02:27;;;;;;;0.40;0.30;;;2.90;94.90;;;;;;5011320;28;20393;-71
2022/03/11 07:04:53;;;;;;;0.40;0.30;;;3.00;94.10;;;;;;5010880;28;20396;-71
2022/03/11 07:07:18;;;;;;;0.40;0.30;;;3.00;93.80;;;;;;5010496;28;20377;-70
2022/03/11 07:09:44;;;;;;;0.40;0.40;;;3.10;94.30;;;;;;5011849;28;20467;-71
2022/03/11 07:12:10;;;;;;;0.40;0.40;;;3.10;93.90;;;;;;5011155;28;20392;-71
2022/03/11 07:14:36;;;;;;;0.50;0.50;;;3.20;93.50;;;;;;5011808;28;20384;-71
2022/03/11 07:17:05;;;;;;;0.40;0.40;;;3.20;93.60;;;;;;5010277;28;20393;-72
2022/03/11 07:19:32;;;;;;;1.20;0.70;;;3.30;93.40;;;;;;5011516;28;20392;-72
2022/03/11 07:22:04;;;;;;;0.40;0.30;;;3.30;93.40;;;;;;5011816;28;20427;-72
2022/03/11 07:24:31;;;;;;;0.70;0.50;;;3.40;92.90;;;;;;5012023;28;20369;-72
2022/03/11 07:26:57;;;;;;;0.40;0.40;;;3.50;92.80;;;;;;5011722;28;20423;-72
2022/03/11 07:29:23;;;;;;;0.40;0.30;;;3.50;92.60;;;;;;5010772;28;20384;-72
2022/03/11 07:31:49;;;;;;;0.40;0.40;;;3.50;92.20;;;;;;5011654;28;20389;-72
2022/03/11 07:34:16;;;;;;;0.40;0.30;;;3.80;92.20;;;;;;5010558;28;20479;-72
2022/03/11 07:36:42;;;;;;;0.40;0.30;;;3.80;91.70;;;;;;5011468;28;20385;-72
2022/03/11 07:39:10;;;;;;;1.25;1.25;;;3.90;91.50;;;;;;5009306;28;20508;-72
2022/03/11 07:41:36;;;;;;;0.40;0.20;;;4.00;91.60;;;;;;5011566;28;20408;-72
2022/03/11 07:44:03;;;;;;;0.40;0.40;;;4.00;91.10;;;;;;5011195;28;20373;-72
2022/03/11 07:46:30;;;;;;;0.40;0.30;;;4.20;90.90;;;;;;5011100;28;20388;-72
2022/03/11 07:48:57;;;;;;;0.40;0.30;;;4.20;90.90;;;;;;5011335;28;20389;-72
2022/03/11 07:51:24;;;;;;;0.40;0.20;;;4.40;91.30;;;;;;5010571;28;20516;-72
2022/03/11 07:53:50;;;;;;;0.80;0.80;;;4.50;90.80;;;;;;5011086;28;20745;-72
2022/03/11 07:56:17;;;;;;;0.40;0.30;;;4.70;91.00;;;;;;5010451;28;20377;-72
2022/03/11 07:58:43;;;;;;;0.70;0.60;;;4.70;90.10;;;;;;5011290;28;20393;-72
2022/03/11 08:01:10;;;;;;;0.60;0.60;;;4.80;90.00;;;;;;5010295;28;20412;-72
2022/03/11 08:03:38;;;;;;;0.40;0.40;;;4.90;90.00;;;;;;5010854;28;20450;-72
2022/03/11 08:06:05;;;;;;;0.40;0.20;;;5.00;90.00;;;;;;5010960;28;20391;-72
2022/03/11 08:08:31;;;;;;;0.50;0.50;;;5.10;88.90;;;;;;5010605;28;20879;-72
2022/03/11 08:10:57;;;;;;;0.63;0.63;;;5.20;88.50;;;;;;4991856;28;20395;-72
2022/03/11 08:13:23;;;;;;;0.40;0.33;;;5.40;87.50;;;;;;4990646;28;20387;-72
2022/03/11 08:15:49;;;;;;;1.00;1.00;;;5.50;87.90;;;;;;4991339;28;20420;-72
2022/03/11 08:18:15;;;;;;;0.70;0.70;;;5.60;85.20;;;;;;4990640;28;20378;-72
2022/03/11 08:20:41;;;;;;;1.47;1.37;;;5.80;84.50;;;;;;4993655;28;20637;-72
2022/03/11 08:23:08;;;;;;;0.40;0.30;;;5.90;84.30;;;;;;4995016;28;20394;-72
2022/03/11 08:25:34;;;;;;;0.40;0.20;;;6.00;83.00;;;;;;4995353;28;20390;-72
2022/03/11 08:28:00;;;;;;;0.40;0.20;;;6.10;82.40;;;;;;4995398;28;20470;-72
2022/03/11 08:30:26;;;;;;;0.50;0.50;;;6.30;81.40;;;;;;4994221;28;20473;-72
2022/03/11 08:32:52;;;;;;;2.40;1.60;;;6.50;80.00;;;;;;4995166;28;20464;-72
2022/03/11 08:35:19;;;;;;;0.40;0.30;;;6.70;78.90;;;;;;4994479;28;20390;-72
2022/03/11 08:37:45;;;;;;;0.40;0.30;;;6.90;77.20;;;;;;4995087;28;20402;-72
2022/03/11 08:40:12;;;;;;;0.90;0.77;;;7.00;76.30;;;;;;4994259;28;20485;-72
2022/03/11 08:42:39;;;;;;;0.40;0.30;;;7.00;74.60;;;;;;4995171;28;20386;-72
2022/03/11 08:45:07;;;;;;;0.40;0.40;;;7.00;73.70;;;;;;4994660;28;20433;-72
2022/03/11 08:47:32;;;;;;;0.40;0.30;;;7.00;73.60;;;;;;4994859;28;20394;-72
2022/03/11 08:49:58;;;;;;;0.40;0.35;;;7.20;72.40;;;;;;4994949;28;20445;-72
2022/03/11 08:52:25;;;;;;;0.40;0.30;;;7.10;71.90;;;;;;4993776;28;20510;-72
2022/03/11 08:54:52;;;;;;;0.40;0.40;;;7.20;71.90;;;;;;4994743;28;20386;-71
2022/03/11 08:57:17;;;;;;;1.20;1.10;;;7.20;71.60;;;;;;4992791;28;20990;-72
2022/03/11 08:59:43;;;;;;;0.40;0.40;;;7.30;72.30;;;;;;4994547;28;20378;-72
2022/03/11 09:02:09;;;;;;;0.40;0.30;;;7.40;72.70;;;;;;4992779;28;20394;-72
2022/03/11 09:04:36;;;;;;;0.70;0.60;;;7.40;71.90;;;;;;4994411;28;20430;-72
2022/03/11 09:07:03;;;;;;;0.40;0.30;;;7.50;71.80;;;;;;4994351;28;20469;-71
2022/03/11 09:09:29;;;;;;;0.40;0.40;;;7.60;71.30;;;;;;4994090;28;20651;-72
2022/03/11 09:11:55;;;;;;;0.90;0.90;;;7.70;71.20;;;;;;4994494;28;20401;-71
2022/03/11 09:14:21;;;;;;;0.40;0.20;;;7.70;70.40;;;;;;4993462;28;20402;-72
2022/03/11 09:16:47;;;;;;;0.60;0.60;;;7.80;70.50;;;;;;4994337;28;20866;-71
2022/03/11 09:19:13;;;;;;;0.40;0.20;;;7.80;70.70;;;;;;4992759;28;20387;-72
2022/03/11 09:21:39;;;;;;;0.40;0.30;;;7.90;70.60;;;;;;4993920;28;20941;-72
2022/03/11 09:24:05;;;;;;;1.20;1.00;;;8.00;70.40;;;;;;4994296;28;20751;-71
2022/03/11 09:26:32;;;;;;;0.40;0.30;;;8.10;69.60;;;;;;4993396;28;20401;-72
2022/03/11 09:28:58;;;;;;;0.40;0.20;;;8.10;68.60;;;;;;4994251;28;20489;-71
2022/03/11 09:31:24;;;;;;;0.50;0.50;;;8.20;68.60;;;;;;4992945;28;20482;-72
2022/03/11 09:33:50;;;;;;;0.60;0.60;;;8.30;67.80;;;;;;4994174;28;20425;-72
2022/03/11 09:36:16;;;;;;;0.50;0.50;;;8.30;67.80;;;;;;4993140;28;20439;-72
2022/03/11 09:38:42;;;;;;;1.60;1.20;;;8.30;68.00;;;;;;4994124;28;20406;-72
2022/03/11 09:41:08;;;;;;;0.60;0.60;;;8.50;66.90;;;;;;4994134;28;20489;-72
2022/03/11 09:43:36;;;;;;;0.40;0.30;;;8.40;66.60;;;;;;4993221;28;20458;-72
2022/03/11 09:46:02;;;;;;;0.50;0.50;;;8.60;66.50;;;;;;4994010;28;20383;-72
2022/03/11 09:48:28;;;;;;;1.00;0.77;;;8.70;65.50;;;;;;4991896;28;20399;-72
2022/03/11 09:50:57;;;;;;;0.40;0.30;;;8.80;65.30;;;;;;4993757;28;20390;-71
2022/03/11 09:53:23;;;;;;;1.10;1.10;;;8.90;65.30;;;;;;4993152;28;20401;-72
2022/03/11 09:55:49;;;;;;;0.40;0.30;;;8.90;65.30;;;;;;4993764;28;20382;-71
2022/03/11 09:58:14;;;;;;;1.50;1.40;;;9.10;65.50;;;;;;4992593;28;20537;-72
2022/03/11 10:00:40;;;;;;;0.50;0.50;;;9.20;65.10;;;;;;4993488;28;20440;-71
2022/03/11 10:03:06;;;;;;;0.40;0.30;;;9.30;64.50;;;;;;4993092;28;20448;-71
2022/03/11 10:05:48;;;;;;;0.40;0.28;;;9.30;63.90;;;;;;4992541;28;21029;-71
2022/03/11 10:08:14;;;;;;;0.40;0.40;;;9.40;64.00;;;;;;4992466;28;20410;-72
2022/03/11 10:10:39;;;;;;;0.40;0.40;;;9.40;62.70;;;;;;5009912;28;20487;-71
2022/03/11 10:13:08;;;;;;;1.00;1.00;;;9.40;61.80;;;;;;5013125;28;20420;-71
2022/03/11 10:15:34;;;;;;;3.17;1.50;;;9.50;62.00;;;;;;5012030;28;20381;-72
2022/03/11 10:18:03;;;;;;;0.40;0.20;;;9.50;61.60;;;;;;5012904;28;20377;-71
2022/03/11 10:20:32;;;;;;;0.68;0.65;;;9.50;61.50;;;;;;5011970;28;20769;-72
2022/03/11 10:22:57;;;;;;;1.45;1.35;;;9.50;60.40;;;;;;5012777;28;20397;-71
2022/03/11 10:25:28;;;;;;;0.40;0.30;;;9.60;60.50;;;;;;5012350;28;20467;-72
2022/03/11 10:27:58;;;;;;;2.35;1.67;;;9.90;59.90;;;;;;5012673;28;20385;-72
2022/03/11 10:30:25;;;;;;;2.00;1.65;;;9.90;59.60;;;;;;5011494;28;20397;-72
2022/03/11 10:32:55;;;;;;;1.50;1.10;;;10.10;58.70;;;;;;5012597;28;20389;-72
2022/03/11 10:35:31;;;;;;;1.70;1.30;;;9.90;59.20;;;;;;5011985;28;20396;-72
2022/03/11 10:37:59;;;;;;;0.40;0.30;;;10.20;58.60;;;;;;5012662;28;20946;-72
2022/03/11 10:40:26;;;;;;;0.40;0.27;;;10.20;58.50;;;;;;5011600;28;20764;-72
2022/03/11 10:43:13;;;;;;;2.60;1.30;;;10.20;58.30;;;;;;5010603;28;20397;-72
2022/03/11 10:45:47;;;;;;;1.13;0.68;;;10.40;58.10;;;;;;5009753;28;20388;-72
2022/03/11 10:48:14;;;;;;;0.40;0.22;;;10.60;57.70;;;;;;5012253;28;20479;-72
2022/03/11 10:50:41;;;;;;;0.40;0.20;;;10.70;57.10;;;;;;5012006;28;20503;-71
2022/03/11 10:53:08;;;;;;;0.50;0.50;;;10.70;56.60;;;;;;5012150;28;20547;-71
2022/03/11 10:55:34;;;;;;;0.40;0.20;;;10.80;56.70;;;;;;5011516;28;20471;-71
2022/03/11 10:58:03;;;;;;;1.80;0.70;;;10.80;56.20;;;;;;5012219;28;20400;-72
2022/03/11 11:00:39;;;;;;;0.40;0.30;;;10.90;56.20;;;;;;5011334;28;20502;-72
2022/03/11 11:03:08;;;;;;;0.50;0.40;;;11.00;56.50;;;;;;5011060;28;20397;-72
2022/03/11 11:05:35;;;;;;;1.70;0.70;;;11.20;56.30;;;;;;5011331;28;20795;-72
2022/03/11 11:08:03;;;;;;;0.40;0.20;;;11.40;56.20;;;;;;5011638;28;20470;-72
2022/03/11 11:10:31;;;;;;;0.70;0.70;;;11.60;55.70;;;;;;4995930;28;20870;-72
2022/03/11 11:12:58;;;;;;;0.85;0.85;;;12.00;56.10;;;;;;4992244;28;20379;-72
2022/03/11 11:15:24;;;;;;;0.60;0.60;;;12.20;54.80;;;;;;4990441;28;20905;-72
2022/03/11 11:17:51;;;;;;;0.47;0.47;;;12.00;54.40;;;;;;4992380;28;20394;-71
2022/03/11 11:20:27;;;;;;;0.80;0.80;;;12.20;54.70;;;;;;4991311;28;20920;-72
2022/03/11 11:22:54;;;;;;;0.40;0.40;;;12.40;54.30;;;;;;4992296;28;20394;-72
2022/03/11 11:25:22;;;;;;;0.57;0.57;;;12.60;54.00;;;;;;4991637;28;20386;-73
2022/03/11 11:27:48;;;;;;;0.60;0.60;;;12.70;54.00;;;;;;4992214;28;20390;-72
2022/03/11 11:30:18;;;;;;;0.90;0.80;;;12.80;52.50;;;;;;4992270;28;20421;-72
2022/03/11 11:32:44;;;;;;;1.00;0.95;;;12.90;52.30;;;;;;4991801;28;20391;-72
2022/03/11 11:35:27;;;;;;;0.57;0.53;;;13.30;52.80;;;;;;4992337;28;20408;-71
2022/03/11 11:37:54;;;;;;;0.60;0.60;;;12.90;51.40;;;;;;4991998;28;20433;-72
2022/03/11 11:40:26;;;;;;;1.20;1.10;;;14.00;51.50;;;;;;4991695;28;20410;-73
2022/03/11 11:43:11;;;;;;;1.10;0.60;;;14.20;49.30;;;;;;4992172;28;20759;-73
2022/03/11 11:45:51;;;;;;;1.35;1.05;;;14.80;48.20;;;;;;4991308;28;20985;-72
2022/03/11 11:48:35;;;;;;;0.40;0.30;;;15.10;47.10;;;;;;4991356;28;20402;-73
2022/03/11 11:51:29;;;;;;;0.57;0.50;;;15.30;47.70;;;;;;4991560;28;20449;-73
2022/03/11 11:53:59;;;;;;;1.00;0.70;;;15.70;46.50;;;;;;4991435;28;20394;-73
2022/03/11 11:56:41;;;;;;;1.30;1.20;;;16.30;46.80;;;;;;4990754;28;20402;-73
2022/03/11 11:59:27;;;;;;;0.60;0.50;;;16.80;45.00;;;;;;4989968;28;20434;-73
2022/03/11 12:01:57;;;;;;;0.40;0.20;;;16.80;43.60;;;;;;4991401;28;20449;-73
2022/03/11 12:04:29;;;;;;;1.00;0.90;;;16.70;43.60;;;;;;4990738;28;20448;-74
2022/03/11 12:07:09;;;;;;;1.00;0.70;;;17.50;43.20;;;;;;4991483;28;20382;-71
2022/03/11 12:12:18;;;;;;;0.40;0.30;;;16.40;42.90;;;;;;5010914;28;20388;-73
2022/03/11 12:15:00;;;;;;;0.40;0.32;;;16.90;42.80;;;;;;5010574;28;20434;-73
2022/03/11 12:17:38;;;;;;;0.70;0.50;;;17.00;43.50;;;;;;5009780;28;20389;-74
2022/03/11 12:20:26;;;;;;;0.90;0.80;;;17.00;42.30;;;;;;5010906;28;20415;-72
2022/03/11 12:23:16;;;;;;;0.40;0.32;;;16.80;41.10;;;;;;5010963;28;20393;-73
2022/03/11 12:25:57;;;;;;;0.40;0.30;;;17.50;41.50;;;;;;5010133;28;20480;-73
2022/03/11 12:28:35;;;;;;;0.80;0.65;;;17.00;42.10;;;;;;5008986;28;20735;-73
2022/03/11 12:31:02;;;;;;;0.60;0.50;;;17.40;42.00;;;;;;5009666;28;20880;-73
2022/03/11 12:33:38;;;;;;;1.30;1.00;;;17.50;41.60;;;;;;5010373;28;20844;-73
2022/03/11 12:36:10;;;;;;;0.60;0.60;;;17.60;41.10;;;;;;5010981;28;20422;-73
2022/03/11 12:38:39;;;;;;;1.00;0.90;;;17.20;41.50;;;;;;5010181;28;20407;-73
2022/03/11 12:41:07;;;;;;;1.55;1.45;;;16.80;42.00;;;;;;5010680;28;20461;-73
2022/03/11 12:43:33;;;;;;;1.13;1.02;;;16.90;43.00;;;;;;5009482;28;20727;-73
2022/03/11 12:46:00;;;;;;;0.50;0.50;;;17.20;42.10;;;;;;5009507;28;20389;-73
2022/03/11 12:48:33;;;;;;;0.40;0.30;;;16.20;40.70;;;;;;5009984;28;20417;-73
2022/03/11 12:51:00;;;;;;;2.50;0.90;;;17.20;42.00;;;;;;5010778;28;20389;-73
2022/03/11 12:53:26;;;;;;;0.50;0.50;;;17.10;42.00;;;;;;5009819;28;20431;-73
2022/03/11 12:55:55;;;;;;;0.40;0.30;;;17.30;42.40;;;;;;5010412;28;20385;-73
2022/03/11 12:58:33;;;;;;;0.40;0.40;;;18.00;43.40;;;;;;5009151;28;20394;-73
2022/03/11 13:01:01;;;;;;;0.40;0.30;;;17.40;42.70;;;;;;5010619;28;20455;-73